createdAt,value
2023-04-09T00:08:00.451Z,7.10
2023-04-09T00:18:05.653Z,7.10
2023-04-09T00:28:11.741Z,7.20
2023-04-09T00:38:16.767Z,7.20
2023-04-09T00:48:20.443Z,7.30
2023-04-09T00:58:25.606Z,7.20
2023-04-09T01:08:40.403Z,7.20
2023-04-09T01:18:52.144Z,7.10
2023-04-09T01:28:58.563Z,7.10
2023-04-09T01:39:03.649Z,7.00
2023-04-09T01:49:10.683Z,6.90
2023-04-09T01:59:15.625Z,6.90
2023-04-09T02:09:22.782Z,7.00
2023-04-09T02:19:26.589Z,6.90
2023-04-09T02:29:31.893Z,7.00
2023-04-09T02:39:35.663Z,7.00
2023-04-09T02:49:40.755Z,7.00
2023-04-09T02:59:44.467Z,7.00
2023-04-09T03:09:49.502Z,6.80
2023-04-09T03:19:53.200Z,6.80
2023-04-09T03:29:58.446Z,6.80
2023-04-09T03:40:02.393Z,6.70
2023-04-09T03:50:08.836Z,6.80
2023-04-09T04:00:13.483Z,6.60
2023-04-09T04:10:18.679Z,6.80
2023-04-09T04:20:22.407Z,6.80
2023-04-09T04:30:27.362Z,6.90
2023-04-09T04:40:30.924Z,7.10
2023-04-09T04:50:36.083Z,7.20
2023-04-09T05:00:39.715Z,7.10
2023-04-09T05:10:46.783Z,7.10
2023-04-09T05:20:50.734Z,7.20
2023-04-09T05:30:55.790Z,7.20
2023-04-09T05:40:59.457Z,7.40
2023-04-09T05:51:04.895Z,7.40
2023-04-09T06:01:08.758Z,7.40
2023-04-09T06:11:14.572Z,7.60
2023-04-09T06:21:18.455Z,7.80
2023-04-09T06:31:23.550Z,7.90
2023-04-09T06:41:28.167Z,8.10
2023-04-09T06:51:33.235Z,7.10
2023-04-09T07:01:39.105Z,8.60
2023-04-09T07:11:44.121Z,8.80
2023-04-09T07:21:47.732Z,8.70
2023-04-09T07:31:52.890Z,9.00
2023-04-09T07:41:57.440Z,9.80
2023-04-09T07:52:02.545Z,10.20
2023-04-09T08:02:06.545Z,10.50
2023-04-09T08:12:12.141Z,10.70
2023-04-09T08:22:16.055Z,11.10
2023-04-09T08:32:21.438Z,11.10
2023-04-09T08:42:27.068Z,11.60
2023-04-09T08:52:34.495Z,11.80
2023-04-09T09:02:39.376Z,12.20
2023-04-09T09:12:44.850Z,12.20
2023-04-09T09:22:57.070Z,12.20
2023-04-09T09:33:09.438Z,12.30
2023-04-09T09:43:14.628Z,12.40
2023-04-09T09:53:24.829Z,12.60
2023-04-09T10:03:32.097Z,12.90
2023-04-09T10:13:40.788Z,12.70
2023-04-09T10:23:51.141Z,12.90
2023-04-09T10:34:04.844Z,13.40
2023-04-09T10:44:21.192Z,13.80
2023-04-09T10:54:49.008Z,13.50
2023-04-09T11:05:07.082Z,13.70
2023-04-09T11:15:18.806Z,13.80
2023-04-09T11:25:23.911Z,13.80
2023-04-09T11:35:29.256Z,13.90
2023-04-09T11:45:33.900Z,14.20
2023-04-09T11:55:39.057Z,14.50
2023-04-09T12:05:50.968Z,14.90
2023-04-09T12:15:59.067Z,14.70
2023-04-09T12:26:03.918Z,14.90
2023-04-09T12:36:09.342Z,15.30
2023-04-09T12:46:13.694Z,14.80
2023-04-09T12:56:18.927Z,14.50
2023-04-09T13:06:24.973Z,14.50
2023-04-09T13:16:30.082Z,14.80
2023-04-09T13:26:34.102Z,14.90
2023-04-09T13:36:39.113Z,15.80
2023-04-09T13:46:43.034Z,16.00
2023-04-09T13:56:49.676Z,15.50
2023-04-09T14:06:53.389Z,15.40
2023-04-09T14:16:58.450Z,15.70
2023-04-09T14:27:02.815Z,16.00
2023-04-09T14:37:07.863Z,16.20
2023-04-09T14:47:11.649Z,16.20
2023-04-09T14:57:16.631Z,16.40
2023-04-09T15:07:20.902Z,16.20
2023-04-09T15:17:29.857Z,16.00
2023-04-09T15:27:33.857Z,15.70
2023-04-09T15:37:38.997Z,15.70
2023-04-09T15:47:43.914Z,15.80
2023-04-09T15:57:48.983Z,16.20
2023-04-09T16:07:52.965Z,16.90
2023-04-09T16:17:58.151Z,17.40
2023-04-09T16:28:01.837Z,16.60
2023-04-09T16:38:07.741Z,15.60
2023-04-09T16:48:12.836Z,14.90
2023-04-09T16:58:17.972Z,15.00
2023-04-09T17:08:24.387Z,15.90
2023-04-09T17:18:29.714Z,16.30
2023-04-09T17:28:33.444Z,17.30
2023-04-09T17:38:38.444Z,17.10
2023-04-09T17:48:42.709Z,16.20
2023-04-09T17:58:47.864Z,14.80
2023-04-09T18:08:52.457Z,13.60
2023-04-09T18:18:57.805Z,12.80
2023-04-09T18:29:01.836Z,12.30
2023-04-09T18:39:07.015Z,11.70
2023-04-09T18:49:11.242Z,11.30
2023-04-09T18:59:28.408Z,11.00
2023-04-09T19:09:33.496Z,10.70
2023-04-09T19:19:38.678Z,10.40
2023-04-09T19:29:43.770Z,10.10
2023-04-09T19:39:49.215Z,9.90
2023-04-09T19:49:53.127Z,9.70
2023-04-09T19:59:58.264Z,9.40
2023-04-09T20:10:02.142Z,9.20
2023-04-09T20:20:08.904Z,9.10
2023-04-09T20:30:13.586Z,8.80
2023-04-09T20:40:19.026Z,8.70
2023-04-09T20:50:22.807Z,8.50
2023-04-09T21:00:28.583Z,8.20
2023-04-09T21:10:32.315Z,8.00
2023-04-09T21:20:37.477Z,7.80
2023-04-09T21:30:42.335Z,7.60
2023-04-09T21:40:48.339Z,7.50
2023-04-09T21:50:52.203Z,7.20
2023-04-09T22:00:57.402Z,7.10
2023-04-09T22:11:01.093Z,7.00
2023-04-09T22:21:07.186Z,6.80
2023-04-09T22:31:11.198Z,6.70
2023-04-09T22:41:17.522Z,6.60
2023-04-09T22:51:21.583Z,6.40
2023-04-09T23:01:27.351Z,6.30
2023-04-09T23:11:31.145Z,6.20
2023-04-09T23:21:36.489Z,6.00
2023-04-09T23:31:40.357Z,6.30
2023-04-09T23:41:45.408Z,5.70
2023-04-09T23:51:49.091Z,5.60
